createdAt,value
2023-03-05T00:01:33.582Z,101667.56
2023-03-05T00:04:03.132Z,101673.22
2023-03-05T00:06:32.118Z,101666.53
2023-03-05T00:08:59.647Z,101661.97
2023-03-05T00:11:30.313Z,101659.44
2023-03-05T00:13:58.877Z,101657.16
2023-03-05T00:16:27.112Z,101653.16
2023-03-05T00:18:55.918Z,101654.56
2023-03-05T00:21:22.635Z,101655.72
2023-03-05T00:23:50.926Z,101657.34
2023-03-05T00:26:20.623Z,101645.28
2023-03-05T00:28:51.885Z,101644.44
2023-03-05T00:31:22.594Z,101643.78
2023-03-05T00:33:55.381Z,101642.72
2023-03-05T00:36:22.764Z,101640.53
2023-03-05T00:38:49.541Z,101639.50
2023-03-05T00:41:17.388Z,101639.28
2023-03-05T00:43:45.644Z,101629.81
2023-03-05T00:46:12.614Z,101632.22
2023-03-05T00:48:39.708Z,101631.75
2023-03-05T00:51:06.947Z,101622.09
2023-03-05T00:53:33.796Z,101634.53
2023-03-05T00:56:00.644Z,101635.41
2023-03-05T00:58:27.545Z,101630.88
2023-03-05T01:00:59.648Z,101636.44
2023-03-05T01:03:26.807Z,101634.72
2023-03-05T01:05:53.636Z,101633.00
2023-03-05T01:08:20.876Z,101631.06
2023-03-05T01:10:48.018Z,101628.72
2023-03-05T01:13:15.087Z,101623.53
2023-03-05T01:15:42.330Z,101619.56
2023-03-05T01:18:09.488Z,101610.72
2023-03-05T01:20:36.942Z,101610.94
2023-03-05T01:23:03.994Z,101613.63
2023-03-05T01:25:30.778Z,101603.97
2023-03-05T01:27:57.746Z,101600.34
2023-03-05T01:30:24.857Z,101603.09
2023-03-05T01:32:51.655Z,101595.28
2023-03-05T01:35:23.068Z,101591.72
2023-03-05T01:37:50.577Z,101581.91
2023-03-05T01:40:29.868Z,101585.63
2023-03-05T01:43:24.003Z,101584.19
2023-03-05T01:46:31.153Z,101576.47
2023-03-05T01:49:18.899Z,101572.94
2023-03-05T01:51:58.404Z,101574.66
2023-03-05T01:54:58.868Z,101571.97
2023-03-05T01:57:32.696Z,101565.84
2023-03-05T02:00:14.636Z,101558.13
2023-03-05T02:02:50.218Z,101553.72
2023-03-05T02:05:27.216Z,101546.66
2023-03-05T02:07:59.819Z,101544.94
2023-03-05T02:10:33.854Z,101552.00
2023-03-05T02:13:10.358Z,101549.44
2023-03-05T02:15:39.108Z,101538.75
2023-03-05T02:18:08.513Z,101540.44
2023-03-05T02:20:51.959Z,101537.00
2023-03-05T02:23:22.790Z,101527.91
2023-03-05T02:25:50.113Z,101532.50
2023-03-05T02:28:45.755Z,101523.81
2023-03-05T02:31:19.831Z,101522.22
2023-03-05T02:33:48.044Z,101510.44
2023-03-05T02:36:15.332Z,101514.00
2023-03-05T02:38:43.678Z,101514.09
2023-03-05T02:41:11.612Z,101508.06
2023-03-05T02:43:38.516Z,101501.88
2023-03-05T02:46:06.127Z,101506.16
2023-03-05T02:48:33.233Z,101498.97
2023-03-05T02:51:01.926Z,101504.44
2023-03-05T02:53:28.755Z,101498.22
2023-03-05T02:55:55.583Z,101500.97
2023-03-05T02:58:22.408Z,101494.59
2023-03-05T03:00:49.575Z,101487.50
2023-03-05T03:03:16.550Z,101491.16
2023-03-05T03:05:43.477Z,101482.16
2023-03-05T03:08:10.781Z,101474.03
2023-03-05T03:13:04.805Z,101474.91
2023-03-05T03:15:32.027Z,101461.34
2023-03-05T03:17:58.939Z,101454.25
2023-03-05T03:20:26.124Z,101456.06
2023-03-05T03:22:53.707Z,101448.13
2023-03-05T03:25:23.194Z,101446.44
2023-03-05T03:27:50.180Z,101440.25
2023-03-05T03:30:17.721Z,101440.34
2023-03-05T03:32:44.976Z,101430.28
2023-03-05T03:35:12.757Z,101423.31
2023-03-05T03:37:39.883Z,101422.47
2023-03-05T03:40:07.943Z,101417.19
2023-03-05T03:42:34.787Z,101409.19
2023-03-05T03:45:02.616Z,101410.16
2023-03-05T03:47:31.016Z,101409.19
2023-03-05T03:49:59.133Z,101405.75
2023-03-05T03:52:26.736Z,101412.06
2023-03-05T03:54:55.890Z,101403.06
2023-03-05T03:57:22.844Z,101403.81
2023-03-05T03:59:50.534Z,101391.44
2023-03-05T04:02:17.960Z,101393.03
2023-03-05T04:04:44.784Z,101392.28
2023-03-05T04:07:11.801Z,101378.81
2023-03-05T04:09:38.906Z,101382.41
2023-03-05T04:12:06.407Z,101377.63
2023-03-05T04:14:33.299Z,101375.91
2023-03-05T04:17:00.313Z,101375.25
2023-03-05T04:19:28.742Z,101386.81
2023-03-05T04:21:55.582Z,101375.16
2023-03-05T04:24:22.438Z,101363.59
2023-03-05T04:26:49.546Z,101376.88
2023-03-05T04:29:16.394Z,101368.94
2023-03-05T04:31:43.280Z,101363.28
2023-03-05T04:34:10.253Z,101368.75
2023-03-05T04:36:37.266Z,101358.91
2023-03-05T04:39:05.007Z,101360.59
2023-03-05T04:41:31.965Z,101356.22
2023-03-05T04:43:58.761Z,101351.63
2023-03-05T04:46:26.120Z,101342.00
2023-03-05T04:48:55.049Z,101332.16
2023-03-05T04:51:22.239Z,101331.97
2023-03-05T04:53:49.317Z,101328.50
2023-03-05T04:56:16.435Z,101322.28
2023-03-05T04:58:43.417Z,101324.97
2023-03-05T05:01:10.764Z,101322.00
2023-03-05T05:03:38.341Z,101325.63
2023-03-05T05:06:05.535Z,101320.38
2023-03-05T05:08:32.549Z,101316.09
2023-03-05T05:11:06.666Z,101312.56
2023-03-05T05:13:34.380Z,101302.06
2023-03-05T05:16:01.353Z,101301.97
2023-03-05T05:18:28.334Z,101299.38
2023-03-05T05:20:55.137Z,101301.97
2023-03-05T05:23:22.329Z,101297.66
2023-03-05T05:26:04.286Z,101304.66
2023-03-05T05:28:31.561Z,101302.16
2023-03-05T05:30:58.828Z,101298.44
2023-03-05T05:33:26.629Z,101291.81
2023-03-05T05:35:53.657Z,101289.16
2023-03-05T05:38:20.513Z,101284.53
2023-03-05T05:40:47.321Z,101292.34
2023-03-05T05:43:14.501Z,101287.75
2023-03-05T05:45:41.551Z,101289.66
2023-03-05T05:48:08.883Z,101288.28
2023-03-05T05:50:35.696Z,101281.44
2023-03-05T05:53:02.485Z,101284.97
2023-03-05T05:55:29.305Z,101282.19
2023-03-05T05:57:59.128Z,101268.06
2023-03-05T06:00:26.270Z,101263.47
2023-03-05T06:02:53.098Z,101262.72
2023-03-05T06:05:20.006Z,101251.56
2023-03-05T06:07:47.502Z,101249.75
2023-03-05T06:10:14.593Z,101252.41
2023-03-05T06:12:41.492Z,101250.41
2023-03-05T06:15:09.137Z,101249.53
2023-03-05T06:17:36.010Z,101252.88
2023-03-05T06:20:04.647Z,101255.97
2023-03-05T06:22:31.772Z,101250.41
2023-03-05T06:24:58.573Z,101259.59
2023-03-05T06:27:25.394Z,101251.56
2023-03-05T06:29:54.423Z,101248.91
2023-03-05T06:32:21.302Z,101248.47
2023-03-05T06:34:48.579Z,101251.91
2023-03-05T06:37:15.365Z,101247.19
2023-03-05T06:39:42.296Z,101250.81
2023-03-05T06:42:10.296Z,101233.91
2023-03-05T06:44:41.368Z,101239.72
2023-03-05T06:47:10.664Z,101241.59
2023-03-05T06:49:38.946Z,101234.44
2023-03-05T06:52:07.535Z,101231.22
2023-03-05T06:54:34.842Z,101231.53
2023-03-05T06:57:02.111Z,101231.78
2023-03-05T06:59:29.357Z,101226.44
2023-03-05T07:01:56.496Z,101217.00
2023-03-05T07:04:24.524Z,101227.19
2023-03-05T07:06:51.410Z,101204.13
2023-03-05T07:09:18.329Z,101204.78
2023-03-05T07:11:45.337Z,101208.22
2023-03-05T07:14:12.501Z,101204.59
2023-03-05T07:16:39.375Z,101216.78
2023-03-05T07:19:07.683Z,101210.59
2023-03-05T07:21:38.238Z,101212.50
2023-03-05T07:24:06.832Z,101209.50
2023-03-05T07:26:34.171Z,101200.72
2023-03-05T07:29:02.266Z,101203.19
2023-03-05T07:31:32.198Z,101206.63
2023-03-05T07:34:01.709Z,101201.47
2023-03-05T07:36:29.186Z,101197.19
2023-03-05T07:38:56.595Z,101196.88
2023-03-05T07:41:24.148Z,101198.59
2023-03-05T07:43:54.101Z,101198.38
2023-03-05T07:46:26.757Z,101199.34
2023-03-05T07:48:57.348Z,101195.81
2023-03-05T07:51:26.293Z,101185.97
2023-03-05T07:53:55.801Z,101175.03
2023-03-05T07:56:32.891Z,101171.72
2023-03-05T07:59:01.742Z,101163.47
2023-03-05T08:01:30.624Z,101169.25
2023-03-05T08:03:58.037Z,101164.34
2023-03-05T08:06:25.134Z,101171.94
2023-03-05T08:08:51.998Z,101156.81
2023-03-05T08:11:18.976Z,101160.47
2023-03-05T08:13:46.343Z,101154.78
2023-03-05T08:16:21.836Z,101149.44
2023-03-05T08:18:49.173Z,101153.81
2023-03-05T08:21:23.005Z,101151.91
2023-03-05T08:23:50.316Z,101141.84
2023-03-05T08:26:23.498Z,101145.69
2023-03-05T08:28:51.132Z,101142.66
2023-03-05T08:31:22.585Z,101130.22
2023-03-05T08:33:52.506Z,101141.38
2023-03-05T08:36:19.641Z,101132.88
2023-03-05T08:38:48.605Z,101130.31
2023-03-05T08:41:18.049Z,101133.22
2023-03-05T08:43:44.960Z,101131.69
2023-03-05T08:46:15.056Z,101132.56
2023-03-05T08:48:42.719Z,101120.56
2023-03-05T08:51:21.987Z,101118.72
2023-03-05T08:53:48.860Z,101116.88
2023-03-05T08:56:16.283Z,101114.94
2023-03-05T08:58:43.361Z,101107.03
2023-03-05T09:01:10.722Z,101114.63
2023-03-05T09:03:37.768Z,101111.06
2023-03-05T09:06:09.052Z,101114.94
2023-03-05T09:08:36.695Z,101109.91
2023-03-05T09:11:09.678Z,101105.19
2023-03-05T09:13:36.950Z,101096.50
2023-03-05T09:16:10.244Z,101097.75
2023-03-05T09:18:37.679Z,101083.19
2023-03-05T09:21:11.025Z,101085.50
2023-03-05T09:23:38.117Z,101082.25
2023-03-05T09:26:07.851Z,101081.03
2023-03-05T09:28:34.964Z,101079.09
2023-03-05T09:31:07.896Z,101075.03
2023-03-05T09:33:36.385Z,101076.41
2023-03-05T09:36:05.416Z,101068.88
2023-03-05T09:38:32.937Z,101068.41
2023-03-05T09:41:08.050Z,101064.16
2023-03-05T09:44:12.520Z,101065.41
2023-03-05T09:46:55.750Z,101074.16
2023-03-05T09:49:57.222Z,101060.88
2023-03-05T09:52:43.357Z,101063.56
2023-03-05T09:55:23.564Z,101061.03
2023-03-05T09:57:55.491Z,101055.69
2023-03-05T10:00:51.326Z,101050.44
2023-03-05T10:03:27.459Z,101041.19
2023-03-05T10:06:07.505Z,101047.63
2023-03-05T10:09:11.959Z,101043.59
2023-03-05T10:12:01.568Z,101035.06
2023-03-05T10:14:32.587Z,101032.88
2023-03-05T10:17:24.229Z,101022.44
2023-03-05T10:20:19.998Z,101021.81
2023-03-05T10:23:08.352Z,101012.16
2023-03-05T10:25:55.068Z,101006.94
2023-03-05T10:28:55.658Z,101012.44
2023-03-05T10:31:28.547Z,101006.09
2023-03-05T10:34:33.921Z,101003.16
2023-03-05T10:37:40.804Z,100984.09
2023-03-05T10:40:44.958Z,100982.13
2023-03-05T10:44:01.844Z,100975.66
2023-03-05T10:46:38.533Z,100965.91
2023-03-05T10:49:38.456Z,100950.63
2023-03-05T10:52:18.170Z,100951.50
2023-03-05T10:54:45.386Z,100958.72
2023-03-05T10:57:12.514Z,100949.84
2023-03-05T10:59:50.638Z,100953.44
2023-03-05T11:02:19.661Z,100947.72
2023-03-05T11:04:49.718Z,100938.38
2023-03-05T11:07:16.437Z,100936.59
2023-03-05T11:10:02.683Z,100933.38
2023-03-05T11:12:37.857Z,100931.00
2023-03-05T11:15:05.147Z,100923.97
2023-03-05T11:17:45.575Z,100917.91
2023-03-05T11:20:27.626Z,100924.44
2023-03-05T11:23:23.736Z,100916.19
2023-03-05T11:26:08.124Z,100909.72
2023-03-05T11:28:55.571Z,100910.56
2023-03-05T11:31:33.220Z,100895.56
2023-03-05T11:34:17.153Z,100901.38
2023-03-05T11:36:51.270Z,100902.34
2023-03-05T11:39:22.846Z,100898.81
2023-03-05T11:41:59.917Z,100888.50
2023-03-05T11:44:38.340Z,100886.78
2023-03-05T11:47:32.196Z,100884.50
2023-03-05T11:50:32.247Z,100882.25
2023-03-05T11:53:22.312Z,100862.38
2023-03-05T11:55:55.080Z,100861.66
2023-03-05T11:58:26.888Z,100862.91
2023-03-05T12:00:54.169Z,100857.25
2023-03-05T12:03:26.574Z,100850.44
2023-03-05T12:06:18.067Z,100851.25
2023-03-05T12:08:49.838Z,100848.03
2023-03-05T12:11:26.559Z,100834.78
2023-03-05T12:14:15.008Z,100836.78
2023-03-05T12:16:52.987Z,100828.81
2023-03-05T12:19:50.570Z,100833.13
2023-03-05T12:22:35.036Z,100829.16
2023-03-05T12:25:53.450Z,100824.22
2023-03-05T12:28:29.370Z,100818.72
2023-03-05T12:31:28.350Z,100812.16
2023-03-05T12:33:55.236Z,100798.97
2023-03-05T12:36:21.984Z,100800.97
2023-03-05T12:38:57.593Z,100803.28
2023-03-05T12:41:25.900Z,100792.63
2023-03-05T12:44:06.448Z,100788.09
2023-03-05T12:46:35.927Z,100781.88
2023-03-05T12:49:18.191Z,100774.91
2023-03-05T12:51:48.264Z,100769.97
2023-03-05T12:54:31.941Z,100765.69
2023-03-05T12:57:13.620Z,100766.25
2023-03-05T13:00:11.338Z,100763.16
2023-03-05T13:02:43.531Z,100746.97
2023-03-05T13:05:35.247Z,100747.25
2023-03-05T13:08:23.203Z,100745.53
2023-03-05T13:11:07.169Z,100741.28
2023-03-05T13:13:39.116Z,100725.41
2023-03-05T13:16:07.274Z,100738.34
2023-03-05T13:18:34.750Z,100727.41
2023-03-05T13:21:17.749Z,100722.59
2023-03-05T13:23:58.307Z,100716.66
2023-03-05T13:26:27.002Z,100714.69
2023-03-05T13:29:17.593Z,100714.69
2023-03-05T13:31:55.704Z,100705.00
2023-03-05T13:34:47.277Z,100707.59
2023-03-05T13:37:21.994Z,100708.03
2023-03-05T13:40:02.084Z,100694.56
2023-03-05T13:42:32.873Z,100697.66
2023-03-05T13:45:03.412Z,100695.69
2023-03-05T13:47:34.204Z,100694.56
2023-03-05T13:50:08.110Z,100686.06
2023-03-05T13:52:38.308Z,100687.75
2023-03-05T13:55:14.718Z,100688.22
2023-03-05T13:57:50.778Z,100686.91
2023-03-05T14:00:26.901Z,100685.78
2023-03-05T14:02:59.531Z,100676.47
2023-03-05T14:05:27.888Z,100675.16
2023-03-05T14:07:56.892Z,100674.19
2023-03-05T14:10:38.478Z,100655.47
2023-03-05T14:13:14.626Z,100661.72
2023-03-05T14:15:41.521Z,100659.84
2023-03-05T14:18:11.305Z,100665.09
2023-03-05T14:20:41.557Z,100665.66
2023-03-05T14:23:31.300Z,100653.22
2023-03-05T14:26:28.748Z,100651.50
2023-03-05T14:29:13.306Z,100650.06
2023-03-05T14:31:49.349Z,100645.22
2023-03-05T14:34:36.048Z,100650.78
2023-03-05T14:37:21.868Z,100637.63
2023-03-05T14:40:05.694Z,100641.31
2023-03-05T14:42:39.166Z,100637.09
2023-03-05T14:45:17.406Z,100637.94
2023-03-05T14:47:44.756Z,100618.38
2023-03-05T14:50:19.712Z,100611.84
2023-03-05T14:52:48.817Z,100608.63
2023-03-05T14:55:21.643Z,100607.00
2023-03-05T14:57:52.423Z,100600.53
2023-03-05T15:00:23.775Z,100604.31
2023-03-05T15:02:54.355Z,100583.25
2023-03-05T15:05:23.290Z,100591.56
2023-03-05T15:07:51.648Z,100588.16
2023-03-05T15:10:23.317Z,100579.41
2023-03-05T15:12:51.437Z,100576.16
2023-03-05T15:15:20.378Z,100571.06
2023-03-05T15:17:51.877Z,100566.97
2023-03-05T15:20:23.873Z,100567.41
2023-03-05T15:22:50.973Z,100554.41
2023-03-05T15:25:20.334Z,100556.41
2023-03-05T15:27:48.193Z,100547.94
2023-03-05T15:30:29.771Z,100549.63
2023-03-05T15:33:00.629Z,100546.88
2023-03-05T15:35:27.962Z,100537.00
2023-03-05T15:37:56.878Z,100533.94
2023-03-05T15:40:24.407Z,100533.94
2023-03-05T15:42:52.052Z,100533.53
2023-03-05T15:45:18.930Z,100519.50
2023-03-05T15:47:48.142Z,100515.09
2023-03-05T15:50:14.972Z,100523.47
2023-03-05T15:52:41.792Z,100516.53
2023-03-05T15:55:09.693Z,100513.78
2023-03-05T15:57:39.324Z,100511.09
2023-03-05T16:00:07.822Z,100499.03
2023-03-05T16:02:34.998Z,100499.94
2023-03-05T16:05:02.232Z,100486.88
2023-03-05T16:07:30.907Z,100485.16
2023-03-05T16:10:00.365Z,100481.63
2023-03-05T16:12:38.107Z,100483.50
2023-03-05T16:15:06.727Z,100478.09
2023-03-05T16:17:35.075Z,100478.09
2023-03-05T16:20:02.207Z,100480.09
2023-03-05T16:22:29.401Z,100469.47
2023-03-05T16:24:57.074Z,100473.00
2023-03-05T16:27:24.107Z,100469.53
2023-03-05T16:29:51.318Z,100463.53
2023-03-05T16:32:18.235Z,100467.53
2023-03-05T16:34:45.394Z,100461.28
2023-03-05T16:37:23.010Z,100459.13
2023-03-05T16:39:50.473Z,100454.31
2023-03-05T16:42:17.703Z,100448.69
2023-03-05T16:44:45.524Z,100448.09
2023-03-05T16:47:13.055Z,100449.53
2023-03-05T16:49:40.579Z,100436.47
2023-03-05T16:52:18.268Z,100440.63
2023-03-05T16:54:45.996Z,100441.31
2023-03-05T16:57:13.062Z,100440.28
2023-03-05T16:59:40.037Z,100439.91
2023-03-05T17:02:08.174Z,100435.97
2023-03-05T17:04:35.687Z,100436.81
2023-03-05T17:07:05.225Z,100438.50
2023-03-05T17:09:33.872Z,100440.22
2023-03-05T17:12:01.931Z,100437.81
2023-03-05T17:14:29.447Z,100443.19
2023-03-05T17:16:57.325Z,100438.66
2023-03-05T17:19:24.992Z,100435.72
2023-03-05T17:21:52.703Z,100433.31
2023-03-05T17:24:22.362Z,100434.63
2023-03-05T17:26:50.220Z,100437.16
2023-03-05T17:29:19.283Z,100431.91
2023-03-05T17:31:46.978Z,100425.41
2023-03-05T17:34:15.709Z,100418.94
2023-03-05T17:36:45.410Z,100422.78
2023-03-05T17:39:13.257Z,100427.72
2023-03-05T17:41:40.122Z,100417.56
2023-03-05T17:44:07.469Z,100410.59
2023-03-05T17:46:34.322Z,100417.13
2023-03-05T17:49:01.217Z,100410.66
2023-03-05T17:51:28.154Z,100409.53
2023-03-05T17:53:55.041Z,100408.41
2023-03-05T17:56:22.317Z,100406.19
2023-03-05T17:58:50.276Z,100407.34
2023-03-05T18:01:29.712Z,100403.66
2023-03-05T18:03:57.861Z,100402.28
2023-03-05T18:06:27.095Z,100404.13
2023-03-05T18:08:55.757Z,100402.56
2023-03-05T18:11:24.333Z,100397.78
2023-03-05T18:13:53.301Z,100395.50
2023-03-05T18:16:22.468Z,100401.59
2023-03-05T18:18:50.353Z,100399.50
2023-03-05T18:21:23.905Z,100391.00
2023-03-05T18:23:53.330Z,100402.06
2023-03-05T18:26:20.509Z,100392.75
2023-03-05T18:28:47.700Z,100387.22
2023-03-05T18:31:14.605Z,100390.19
2023-03-05T18:33:43.487Z,100399.09
2023-03-05T18:36:11.932Z,100389.75
2023-03-05T18:38:38.809Z,100383.94
2023-03-05T18:41:06.570Z,100384.38
2023-03-05T18:43:33.672Z,100390.31
2023-03-05T18:46:05.065Z,100389.03
2023-03-05T18:48:31.979Z,100379.13
2023-03-05T18:50:58.867Z,100389.34
2023-03-05T18:53:25.943Z,100386.50
2023-03-05T18:55:53.518Z,100377.91
2023-03-05T18:58:20.477Z,100379.16
2023-03-05T19:00:48.324Z,100375.91
2023-03-05T19:03:16.595Z,100379.72
2023-03-05T19:05:43.888Z,100378.88
2023-03-05T19:08:11.502Z,100370.41
2023-03-05T19:10:39.208Z,100382.69
2023-03-05T19:13:30.099Z,100367.00
2023-03-05T19:15:56.944Z,100369.56
2023-03-05T19:18:25.842Z,100371.25
2023-03-05T19:20:56.295Z,100366.13
2023-03-05T19:23:24.233Z,100358.53
2023-03-05T19:25:51.071Z,100361.91
2023-03-05T19:28:18.012Z,100367.41
2023-03-05T19:30:46.467Z,100361.03
2023-03-05T19:33:13.682Z,100363.69
2023-03-05T19:35:42.293Z,100359.91
2023-03-05T19:38:09.725Z,100354.53
2023-03-05T19:40:36.714Z,100351.13
2023-03-05T19:43:05.736Z,100352.25
2023-03-05T19:45:34.546Z,100357.34
2023-03-05T19:48:02.558Z,100355.78
2023-03-05T19:50:29.471Z,100353.97
2023-03-05T19:52:56.442Z,100350.16
2023-03-05T19:55:23.274Z,100352.81
2023-03-05T19:57:50.153Z,100354.25
2023-03-05T20:00:18.014Z,100360.19
2023-03-05T20:02:48.660Z,100354.81
2023-03-05T20:05:15.749Z,100351.00
2023-03-05T20:07:42.683Z,100339.56
2023-03-05T20:10:10.919Z,100340.00
2023-03-05T20:12:39.339Z,100348.31
2023-03-05T20:15:07.015Z,100339.03
2023-03-05T20:17:34.187Z,100342.69
2023-03-05T20:20:02.356Z,100340.97
2023-03-05T20:22:29.880Z,100340.72
2023-03-05T20:24:58.367Z,100339.03
2023-03-05T20:27:25.343Z,100331.81
2023-03-05T20:29:52.589Z,100331.81
2023-03-05T20:32:19.765Z,100334.50
2023-03-05T20:34:46.730Z,100326.44
2023-03-05T20:37:13.849Z,100323.47
2023-03-05T20:39:40.660Z,100327.16
2023-03-05T20:42:07.486Z,100325.03
2023-03-05T20:44:34.306Z,100323.19
2023-03-05T20:47:12.776Z,100320.66
2023-03-05T20:49:40.139Z,100323.50
2023-03-05T20:52:06.956Z,100319.13
2023-03-05T20:54:33.930Z,100308.25
2023-03-05T20:57:00.799Z,100311.19
2023-03-05T20:59:27.634Z,100309.09
2023-03-05T21:01:54.462Z,100310.78
2023-03-05T21:04:21.309Z,100307.25
2023-03-05T21:06:53.317Z,100304.84
2023-03-05T21:09:20.425Z,100304.41
2023-03-05T21:11:47.279Z,100307.09
2023-03-05T21:14:14.204Z,100300.63
2023-03-05T21:16:41.119Z,100295.97
2023-03-05T21:19:07.959Z,100295.25
2023-03-05T21:21:34.843Z,100301.19
2023-03-05T21:24:02.034Z,100290.72
2023-03-05T21:26:29.913Z,100297.25
2023-03-05T21:28:58.458Z,100291.00
2023-03-05T21:31:26.371Z,100287.63
2023-03-05T21:33:54.577Z,100286.34
2023-03-05T21:36:22.369Z,100291.56
2023-03-05T21:38:50.159Z,100278.72
2023-03-05T21:41:18.375Z,100276.88
2023-03-05T21:43:45.701Z,100276.88
2023-03-05T21:46:12.987Z,100279.16
2023-03-05T21:48:40.126Z,100274.63
2023-03-05T21:51:09.210Z,100266.72
2023-03-05T21:53:36.673Z,100258.38
2023-03-05T21:56:18.470Z,100259.06
2023-03-05T21:58:47.614Z,100262.47
2023-03-05T22:01:18.584Z,100267.84
2023-03-05T22:03:46.302Z,100259.34
2023-03-05T22:06:16.387Z,100247.34
2023-03-05T22:08:43.378Z,100252.28
2023-03-05T22:11:15.812Z,100241.69
2023-03-05T22:13:43.218Z,100238.31
2023-03-05T22:16:10.568Z,100235.34
2023-03-05T22:18:37.549Z,100233.91
2023-03-05T22:21:05.107Z,100231.66
2023-03-05T22:23:34.674Z,100231.97
2023-03-05T22:26:05.820Z,100233.78
2023-03-05T22:28:34.508Z,100231.97
2023-03-05T22:31:01.723Z,100228.41
2023-03-05T22:33:30.935Z,100230.81
2023-03-05T22:35:58.511Z,100231.78
2023-03-05T22:38:26.010Z,100219.25
2023-03-05T22:40:53.277Z,100226.59
2023-03-05T22:43:20.893Z,100223.19
2023-03-05T22:45:48.004Z,100214.44
2023-03-05T22:48:15.423Z,100212.75
2023-03-05T22:50:44.418Z,100215.28
2023-03-05T22:53:12.508Z,100211.03
2023-03-05T22:55:42.989Z,100206.69
2023-03-05T22:58:10.289Z,100210.91
2023-03-05T23:00:37.807Z,100209.06
2023-03-05T23:03:06.530Z,100204.28
2023-03-05T23:05:35.002Z,100197.78
2023-03-05T23:08:02.252Z,100191.28
2023-03-05T23:10:29.593Z,100193.97
2023-03-05T23:12:59.357Z,100183.50
2023-03-05T23:15:31.545Z,100187.91
2023-03-05T23:17:58.613Z,100183.66
2023-03-05T23:20:29.944Z,100184.78
2023-03-05T23:22:58.144Z,100184.19
2023-03-05T23:25:29.173Z,100181.41
2023-03-05T23:28:00.135Z,100180.81
2023-03-05T23:30:29.740Z,100174.34
2023-03-05T23:33:02.394Z,100173.09
2023-03-05T23:35:36.975Z,100170.53
2023-03-05T23:38:16.789Z,100159.50
2023-03-05T23:40:50.574Z,100158.78
2023-03-05T23:43:18.709Z,100156.97
2023-03-05T23:45:51.217Z,100151.44
2023-03-05T23:48:18.475Z,100146.38
2023-03-05T23:50:48.493Z,100143.84
2023-03-05T23:53:25.906Z,100134.94
2023-03-05T23:55:53.730Z,100138.19
2023-03-05T23:58:20.711Z,100131.56
